sensor_id;sensor_type;location;lat;lon;timestamp;P1;durP1;ratioP1;P2;durP2;ratioP2
4704;SDS011;2366;51.332;6.610;2023-03-07T00:01:36;18.20;;;11.70;;
4704;SDS011;2366;51.332;6.610;2023-03-07T00:04:01;17.13;;;10.60;;
4704;SDS011;2366;51.332;6.610;2023-03-07T00:06:27;16.83;;;11.53;;
4704;SDS011;2366;51.332;6.610;2023-03-07T00:08:57;16.93;;;9.33;;
4704;SDS011;2366;51.332;6.610;2023-03-07T00:11:24;15.32;;;9.57;;
4704;SDS011;2366;51.332;6.610;2023-03-07T00:13:50;18.02;;;10.45;;
4704;SDS011;2366;51.332;6.610;2023-03-07T00:16:17;15.13;;;11.40;;
4704;SDS011;2366;51.332;6.610;2023-03-07T00:18:44;16.48;;;10.60;;
4704;SDS011;2366;51.332;6.610;2023-03-07T00:21:11;17.80;;;10.93;;
4704;SDS011;2366;51.332;6.610;2023-03-07T00:23:39;18.17;;;10.40;;
4704;SDS011;2366;51.332;6.610;2023-03-07T00:26:07;14.68;;;9.50;;
4704;SDS011;2366;51.332;6.610;2023-03-07T00:28:34;14.57;;;9.82;;
4704;SDS011;2366;51.332;6.610;2023-03-07T00:31:04;12.33;;;9.93;;
4704;SDS011;2366;51.332;6.610;2023-03-07T00:33:31;15.77;;;10.40;;
4704;SDS011;2366;51.332;6.610;2023-03-07T00:35:57;12.50;;;8.50;;
4704;SDS011;2366;51.332;6.610;2023-03-07T00:38:26;11.60;;;9.13;;
4704;SDS011;2366;51.332;6.610;2023-03-07T00:40:59;12.07;;;9.43;;
4704;SDS011;2366;51.332;6.610;2023-03-07T00:43:27;10.23;;;8.65;;
4704;SDS011;2366;51.332;6.610;2023-03-07T00:45:53;12.40;;;9.77;;
4704;SDS011;2366;51.332;6.610;2023-03-07T00:48:19;15.30;;;8.65;;
4704;SDS011;2366;51.332;6.610;2023-03-07T00:50:45;11.65;;;8.90;;
4704;SDS011;2366;51.332;6.610;2023-03-07T00:53:10;12.70;;;10.27;;
4704;SDS011;2366;51.332;6.610;2023-03-07T00:55:36;10.90;;;8.60;;
4704;SDS011;2366;51.332;6.610;2023-03-07T00:58:01;13.50;;;9.00;;
4704;SDS011;2366;51.332;6.610;2023-03-07T01:00:27;13.07;;;9.03;;
4704;SDS011;2366;51.332;6.610;2023-03-07T01:02:52;11.40;;;8.50;;
4704;SDS011;2366;51.332;6.610;2023-03-07T01:05:17;13.30;;;9.13;;
4704;SDS011;2366;51.332;6.610;2023-03-07T01:07:43;13.07;;;9.63;;
4704;SDS011;2366;51.332;6.610;2023-03-07T01:10:08;10.70;;;8.10;;
4704;SDS011;2366;51.332;6.610;2023-03-07T01:12:34;8.20;;;7.30;;
4704;SDS011;2366;51.332;6.610;2023-03-07T01:14:59;9.17;;;7.80;;
4704;SDS011;2366;51.332;6.610;2023-03-07T01:17:25;10.30;;;8.00;;
4704;SDS011;2366;51.332;6.610;2023-03-07T01:19:50;12.93;;;7.40;;
4704;SDS011;2366;51.332;6.610;2023-03-07T01:22:16;9.83;;;6.47;;
4704;SDS011;2366;51.332;6.610;2023-03-07T01:24:41;9.93;;;8.47;;
4704;SDS011;2366;51.332;6.610;2023-03-07T01:27:06;10.30;;;7.47;;
4704;SDS011;2366;51.332;6.610;2023-03-07T01:29:32;9.00;;;7.13;;
4704;SDS011;2366;51.332;6.610;2023-03-07T01:31:57;8.67;;;6.73;;
4704;SDS011;2366;51.332;6.610;2023-03-07T01:34:22;8.07;;;5.43;;
4704;SDS011;2366;51.332;6.610;2023-03-07T01:36:48;10.10;;;6.23;;
4704;SDS011;2366;51.332;6.610;2023-03-07T01:39:14;6.40;;;5.60;;
4704;SDS011;2366;51.332;6.610;2023-03-07T01:41:41;5.85;;;5.25;;
4704;SDS011;2366;51.332;6.610;2023-03-07T01:44:13;4.22;;;3.45;;
4704;SDS011;2366;51.332;6.610;2023-03-07T01:46:45;5.85;;;4.45;;
4704;SDS011;2366;51.332;6.610;2023-03-07T01:52:07;5.40;;;3.88;;
4704;SDS011;2366;51.332;6.610;2023-03-07T01:54:40;3.58;;;3.28;;
4704;SDS011;2366;51.332;6.610;2023-03-07T01:57:12;5.03;;;4.18;;
4704;SDS011;2366;51.332;6.610;2023-03-07T01:59:40;4.00;;;3.60;;
4704;SDS011;2366;51.332;6.610;2023-03-07T02:02:09;3.67;;;3.33;;
4704;SDS011;2366;51.332;6.610;2023-03-07T02:04:54;5.22;;;3.95;;
4704;SDS011;2366;51.332;6.610;2023-03-07T02:07:26;4.38;;;3.97;;
4704;SDS011;2366;51.332;6.610;2023-03-07T02:09:55;6.05;;;4.40;;
4704;SDS011;2366;51.332;6.610;2023-03-07T02:12:22;6.45;;;5.13;;
4704;SDS011;2366;51.332;6.610;2023-03-07T02:14:48;5.63;;;4.83;;
4704;SDS011;2366;51.332;6.610;2023-03-07T02:17:15;5.75;;;4.80;;
4704;SDS011;2366;51.332;6.610;2023-03-07T02:19:43;6.40;;;5.72;;
4704;SDS011;2366;51.332;6.610;2023-03-07T02:22:25;6.47;;;5.15;;
4704;SDS011;2366;51.332;6.610;2023-03-07T02:25:02;9.33;;;6.73;;
4704;SDS011;2366;51.332;6.610;2023-03-07T02:27:32;7.50;;;6.10;;
4704;SDS011;2366;51.332;6.610;2023-03-07T02:30:00;9.57;;;7.20;;
4704;SDS011;2366;51.332;6.610;2023-03-07T02:32:26;6.83;;;5.60;;
4704;SDS011;2366;51.332;6.610;2023-03-07T02:34:51;6.70;;;5.70;;
4704;SDS011;2366;51.332;6.610;2023-03-07T02:37:21;6.63;;;6.00;;
4704;SDS011;2366;51.332;6.610;2023-03-07T02:39:53;7.38;;;5.57;;
4704;SDS011;2366;51.332;6.610;2023-03-07T02:42:22;6.78;;;5.25;;
4704;SDS011;2366;51.332;6.610;2023-03-07T02:44:57;5.72;;;5.05;;
4704;SDS011;2366;51.332;6.610;2023-03-07T02:47:25;5.38;;;4.88;;
4704;SDS011;2366;51.332;6.610;2023-03-07T02:49:51;6.50;;;5.15;;
4704;SDS011;2366;51.332;6.610;2023-03-07T02:52:17;5.97;;;4.90;;
4704;SDS011;2366;51.332;6.610;2023-03-07T02:54:42;6.60;;;5.43;;
4704;SDS011;2366;51.332;6.610;2023-03-07T02:57:07;6.90;;;4.97;;
4704;SDS011;2366;51.332;6.610;2023-03-07T02:59:34;6.35;;;5.38;;
4704;SDS011;2366;51.332;6.610;2023-03-07T03:02:00;4.63;;;4.23;;
4704;SDS011;2366;51.332;6.610;2023-03-07T03:04:25;5.43;;;4.93;;
4704;SDS011;2366;51.332;6.610;2023-03-07T03:06:51;5.57;;;5.07;;
4704;SDS011;2366;51.332;6.610;2023-03-07T03:09:16;5.70;;;5.10;;
4704;SDS011;2366;51.332;6.610;2023-03-07T03:11:41;6.03;;;5.00;;
4704;SDS011;2366;51.332;6.610;2023-03-07T03:14:07;6.73;;;5.83;;
4704;SDS011;2366;51.332;6.610;2023-03-07T03:16:32;5.97;;;4.73;;
4704;SDS011;2366;51.332;6.610;2023-03-07T03:18:58;6.67;;;6.03;;
4704;SDS011;2366;51.332;6.610;2023-03-07T03:21:24;6.72;;;6.03;;
4704;SDS011;2366;51.332;6.610;2023-03-07T03:23:49;6.20;;;5.03;;
4704;SDS011;2366;51.332;6.610;2023-03-07T03:26:15;5.50;;;5.00;;
4704;SDS011;2366;51.332;6.610;2023-03-07T03:28:40;8.13;;;5.23;;
4704;SDS011;2366;51.332;6.610;2023-03-07T03:31:06;9.90;;;5.80;;
4704;SDS011;2366;51.332;6.610;2023-03-07T03:33:34;10.55;;;6.13;;
4704;SDS011;2366;51.332;6.610;2023-03-07T03:36:04;6.10;;;5.60;;
4704;SDS011;2366;51.332;6.610;2023-03-07T03:38:35;8.82;;;5.85;;
4704;SDS011;2366;51.332;6.610;2023-03-07T03:41:04;5.30;;;4.80;;
4704;SDS011;2366;51.332;6.610;2023-03-07T03:43:31;5.93;;;4.82;;
4704;SDS011;2366;51.332;6.610;2023-03-07T03:45:58;5.28;;;4.75;;
4704;SDS011;2366;51.332;6.610;2023-03-07T03:48:23;5.67;;;4.67;;
4704;SDS011;2366;51.332;6.610;2023-03-07T03:50:49;7.13;;;6.20;;
4704;SDS011;2366;51.332;6.610;2023-03-07T03:53:14;6.27;;;5.60;;
4704;SDS011;2366;51.332;6.610;2023-03-07T03:55:40;5.97;;;5.37;;
4704;SDS011;2366;51.332;6.610;2023-03-07T03:58:05;7.70;;;5.60;;
4704;SDS011;2366;51.332;6.610;2023-03-07T04:00:31;8.63;;;6.70;;
4704;SDS011;2366;51.332;6.610;2023-03-07T04:02:56;9.30;;;7.20;;
4704;SDS011;2366;51.332;6.610;2023-03-07T04:05:21;13.30;;;8.30;;
4704;SDS011;2366;51.332;6.610;2023-03-07T04:07:47;8.80;;;7.27;;
4704;SDS011;2366;51.332;6.610;2023-03-07T04:10:13;12.40;;;8.57;;
4704;SDS011;2366;51.332;6.610;2023-03-07T04:12:39;11.40;;;9.63;;
4704;SDS011;2366;51.332;6.610;2023-03-07T04:15:05;10.57;;;8.80;;
4704;SDS011;2366;51.332;6.610;2023-03-07T04:17:31;14.63;;;10.13;;
4704;SDS011;2366;51.332;6.610;2023-03-07T04:19:57;12.93;;;9.75;;
4704;SDS011;2366;51.332;6.610;2023-03-07T04:22:22;13.40;;;10.37;;
4704;SDS011;2366;51.332;6.610;2023-03-07T04:24:48;13.83;;;9.83;;
4704;SDS011;2366;51.332;6.610;2023-03-07T04:27:13;15.23;;;10.03;;
4704;SDS011;2366;51.332;6.610;2023-03-07T04:29:38;15.83;;;10.23;;
4704;SDS011;2366;51.332;6.610;2023-03-07T04:32:04;11.13;;;9.73;;
4704;SDS011;2366;51.332;6.610;2023-03-07T04:34:29;13.03;;;8.80;;
4704;SDS011;2366;51.332;6.610;2023-03-07T04:36:55;15.53;;;11.03;;
4704;SDS011;2366;51.332;6.610;2023-03-07T04:39:23;16.20;;;12.05;;
4704;SDS011;2366;51.332;6.610;2023-03-07T04:41:48;15.00;;;10.10;;
4704;SDS011;2366;51.332;6.610;2023-03-07T04:44:13;13.33;;;10.43;;
4704;SDS011;2366;51.332;6.610;2023-03-07T04:46:40;14.35;;;10.93;;
4704;SDS011;2366;51.332;6.610;2023-03-07T04:49:05;16.43;;;11.30;;
4704;SDS011;2366;51.332;6.610;2023-03-07T04:51:31;14.47;;;10.23;;
4704;SDS011;2366;51.332;6.610;2023-03-07T04:53:56;18.20;;;10.77;;
4704;SDS011;2366;51.332;6.610;2023-03-07T04:56:21;15.97;;;11.30;;
4704;SDS011;2366;51.332;6.610;2023-03-07T04:58:47;15.33;;;11.53;;
4704;SDS011;2366;51.332;6.610;2023-03-07T05:01:12;15.57;;;10.80;;
4704;SDS011;2366;51.332;6.610;2023-03-07T05:03:38;15.30;;;11.37;;
4704;SDS011;2366;51.332;6.610;2023-03-07T05:06:04;11.80;;;9.60;;
4704;SDS011;2366;51.332;6.610;2023-03-07T05:08:32;15.40;;;11.68;;
4704;SDS011;2366;51.332;6.610;2023-03-07T05:10:58;16.70;;;12.18;;
4704;SDS011;2366;51.332;6.610;2023-03-07T05:13:23;16.90;;;11.97;;
4704;SDS011;2366;51.332;6.610;2023-03-07T05:15:53;13.43;;;11.30;;
4704;SDS011;2366;51.332;6.610;2023-03-07T05:18:19;15.93;;;11.73;;
4704;SDS011;2366;51.332;6.610;2023-03-07T05:20:45;17.93;;;11.40;;
4704;SDS011;2366;51.332;6.610;2023-03-07T05:23:11;15.47;;;12.00;;
4704;SDS011;2366;51.332;6.610;2023-03-07T05:25:36;13.87;;;10.73;;
4704;SDS011;2366;51.332;6.610;2023-03-07T05:28:01;14.60;;;11.10;;
4704;SDS011;2366;51.332;6.610;2023-03-07T05:30:27;16.17;;;11.77;;
4704;SDS011;2366;51.332;6.610;2023-03-07T05:32:53;12.83;;;10.50;;
4704;SDS011;2366;51.332;6.610;2023-03-07T05:35:18;16.53;;;11.20;;
4704;SDS011;2366;51.332;6.610;2023-03-07T05:37:44;18.95;;;12.07;;
4704;SDS011;2366;51.332;6.610;2023-03-07T05:40:10;12.63;;;10.50;;
4704;SDS011;2366;51.332;6.610;2023-03-07T05:42:36;14.88;;;11.23;;
4704;SDS011;2366;51.332;6.610;2023-03-07T05:45:02;14.43;;;10.50;;
4704;SDS011;2366;51.332;6.610;2023-03-07T05:47:29;18.38;;;12.35;;
4704;SDS011;2366;51.332;6.610;2023-03-07T05:49:55;19.37;;;12.10;;
4704;SDS011;2366;51.332;6.610;2023-03-07T05:52:20;15.03;;;10.97;;
4704;SDS011;2366;51.332;6.610;2023-03-07T05:54:46;14.83;;;10.70;;
4704;SDS011;2366;51.332;6.610;2023-03-07T05:57:11;19.20;;;11.97;;
4704;SDS011;2366;51.332;6.610;2023-03-07T05:59:36;16.07;;;11.67;;
4704;SDS011;2366;51.332;6.610;2023-03-07T06:02:02;18.37;;;11.20;;
4704;SDS011;2366;51.332;6.610;2023-03-07T06:04:27;16.20;;;12.10;;
4704;SDS011;2366;51.332;6.610;2023-03-07T06:06:52;15.50;;;11.13;;
4704;SDS011;2366;51.332;6.610;2023-03-07T06:09:18;22.73;;;11.80;;
4704;SDS011;2366;51.332;6.610;2023-03-07T06:11:43;18.00;;;13.43;;
4704;SDS011;2366;51.332;6.610;2023-03-07T06:14:09;15.60;;;11.33;;
4704;SDS011;2366;51.332;6.610;2023-03-07T06:16:34;19.13;;;12.43;;
4704;SDS011;2366;51.332;6.610;2023-03-07T06:18:59;17.83;;;12.03;;
4704;SDS011;2366;51.332;6.610;2023-03-07T06:21:25;20.60;;;11.67;;
4704;SDS011;2366;51.332;6.610;2023-03-07T06:23:50;20.53;;;13.03;;
4704;SDS011;2366;51.332;6.610;2023-03-07T06:26:15;19.90;;;13.33;;
4704;SDS011;2366;51.332;6.610;2023-03-07T06:28:41;17.10;;;12.93;;
4704;SDS011;2366;51.332;6.610;2023-03-07T06:31:10;22.67;;;13.97;;
4704;SDS011;2366;51.332;6.610;2023-03-07T06:33:39;17.65;;;13.05;;
4704;SDS011;2366;51.332;6.610;2023-03-07T06:36:08;21.83;;;11.67;;
4704;SDS011;2366;51.332;6.610;2023-03-07T06:38:35;17.70;;;13.43;;
4704;SDS011;2366;51.332;6.610;2023-03-07T06:41:01;18.37;;;12.13;;
4704;SDS011;2366;51.332;6.610;2023-03-07T06:43:26;15.17;;;11.97;;
4704;SDS011;2366;51.332;6.610;2023-03-07T06:45:52;12.63;;;11.03;;
4704;SDS011;2366;51.332;6.610;2023-03-07T06:48:18;17.63;;;11.80;;
4704;SDS011;2366;51.332;6.610;2023-03-07T06:50:44;17.23;;;11.97;;
4704;SDS011;2366;51.332;6.610;2023-03-07T06:53:09;17.73;;;11.40;;
4704;SDS011;2366;51.332;6.610;2023-03-07T06:55:35;17.90;;;12.10;;
4704;SDS011;2366;51.332;6.610;2023-03-07T06:58:00;14.57;;;11.10;;
4704;SDS011;2366;51.332;6.610;2023-03-07T07:00:26;14.27;;;10.03;;
4704;SDS011;2366;51.332;6.610;2023-03-07T07:02:52;16.27;;;11.53;;
4704;SDS011;2366;51.332;6.610;2023-03-07T07:05:17;17.20;;;11.13;;
4704;SDS011;2366;51.332;6.610;2023-03-07T07:07:42;17.30;;;12.23;;
4704;SDS011;2366;51.332;6.610;2023-03-07T07:10:08;19.83;;;11.67;;
4704;SDS011;2366;51.332;6.610;2023-03-07T07:12:34;15.63;;;11.73;;
4704;SDS011;2366;51.332;6.610;2023-03-07T07:14:59;16.10;;;12.17;;
4704;SDS011;2366;51.332;6.610;2023-03-07T07:17:26;18.85;;;13.27;;
4704;SDS011;2366;51.332;6.610;2023-03-07T07:19:53;20.20;;;13.07;;
4704;SDS011;2366;51.332;6.610;2023-03-07T07:22:18;18.77;;;11.80;;
4704;SDS011;2366;51.332;6.610;2023-03-07T07:24:44;17.53;;;13.07;;
4704;SDS011;2366;51.332;6.610;2023-03-07T07:27:09;16.43;;;12.40;;
4704;SDS011;2366;51.332;6.610;2023-03-07T07:29:35;20.40;;;14.00;;
4704;SDS011;2366;51.332;6.610;2023-03-07T07:32:00;17.27;;;12.37;;
4704;SDS011;2366;51.332;6.610;2023-03-07T07:34:26;19.40;;;12.43;;
4704;SDS011;2366;51.332;6.610;2023-03-07T07:36:51;27.50;;;12.80;;
4704;SDS011;2366;51.332;6.610;2023-03-07T07:39:17;21.13;;;13.50;;
4704;SDS011;2366;51.332;6.610;2023-03-07T07:41:44;15.02;;;11.82;;
4704;SDS011;2366;51.332;6.610;2023-03-07T07:44:10;20.83;;;12.03;;
4704;SDS011;2366;51.332;6.610;2023-03-07T07:46:35;17.05;;;11.70;;
4704;SDS011;2366;51.332;6.610;2023-03-07T07:49:01;20.30;;;13.10;;
4704;SDS011;2366;51.332;6.610;2023-03-07T07:51:27;17.63;;;12.30;;
4704;SDS011;2366;51.332;6.610;2023-03-07T07:53:52;20.17;;;12.53;;
4704;SDS011;2366;51.332;6.610;2023-03-07T07:56:18;20.00;;;12.83;;
4704;SDS011;2366;51.332;6.610;2023-03-07T07:58:43;21.23;;;12.23;;
4704;SDS011;2366;51.332;6.610;2023-03-07T08:01:15;16.50;;;11.93;;
4704;SDS011;2366;51.332;6.610;2023-03-07T08:03:43;18.23;;;11.52;;
4704;SDS011;2366;51.332;6.610;2023-03-07T08:06:08;19.80;;;12.67;;
4704;SDS011;2366;51.332;6.610;2023-03-07T08:08:34;17.27;;;11.60;;
4704;SDS011;2366;51.332;6.610;2023-03-07T08:10:59;17.53;;;11.83;;
4704;SDS011;2366;51.332;6.610;2023-03-07T08:13:24;19.80;;;11.80;;
4704;SDS011;2366;51.332;6.610;2023-03-07T08:15:50;18.40;;;11.27;;
4704;SDS011;2366;51.332;6.610;2023-03-07T08:18:15;23.20;;;11.33;;
4704;SDS011;2366;51.332;6.610;2023-03-07T08:20:40;15.57;;;10.17;;
4704;SDS011;2366;51.332;6.610;2023-03-07T08:23:06;13.67;;;10.20;;
4704;SDS011;2366;51.332;6.610;2023-03-07T08:25:31;15.27;;;10.80;;
4704;SDS011;2366;51.332;6.610;2023-03-07T08:27:57;15.10;;;11.20;;
4704;SDS011;2366;51.332;6.610;2023-03-07T08:30:26;13.17;;;9.70;;
4704;SDS011;2366;51.332;6.610;2023-03-07T08:32:54;17.48;;;11.90;;
4704;SDS011;2366;51.332;6.610;2023-03-07T08:35:20;13.55;;;9.77;;
4704;SDS011;2366;51.332;6.610;2023-03-07T08:37:46;14.25;;;10.25;;
4704;SDS011;2366;51.332;6.610;2023-03-07T08:40:15;12.02;;;9.85;;
4704;SDS011;2366;51.332;6.610;2023-03-07T08:42:41;17.03;;;9.90;;
4704;SDS011;2366;51.332;6.610;2023-03-07T08:45:07;14.35;;;10.80;;
4704;SDS011;2366;51.332;6.610;2023-03-07T08:47:33;11.75;;;9.95;;
4704;SDS011;2366;51.332;6.610;2023-03-07T08:49:59;18.00;;;11.20;;
4704;SDS011;2366;51.332;6.610;2023-03-07T08:52:24;13.10;;;10.90;;
4704;SDS011;2366;51.332;6.610;2023-03-07T08:54:50;11.80;;;9.93;;
4704;SDS011;2366;51.332;6.610;2023-03-07T08:57:15;13.07;;;10.30;;
4704;SDS011;2366;51.332;6.610;2023-03-07T08:59:40;12.33;;;9.57;;
4704;SDS011;2366;51.332;6.610;2023-03-07T09:02:06;15.20;;;9.27;;
4704;SDS011;2366;51.332;6.610;2023-03-07T09:04:34;9.40;;;6.60;;
4704;SDS011;2366;51.332;6.610;2023-03-07T09:07:00;8.07;;;5.80;;
4704;SDS011;2366;51.332;6.610;2023-03-07T09:09:26;7.80;;;4.27;;
4704;SDS011;2366;51.332;6.610;2023-03-07T09:11:53;4.75;;;4.32;;
4704;SDS011;2366;51.332;6.610;2023-03-07T09:14:18;4.57;;;3.67;;
4704;SDS011;2366;51.332;6.610;2023-03-07T09:16:44;5.10;;;4.13;;
4704;SDS011;2366;51.332;6.610;2023-03-07T09:19:09;5.17;;;2.83;;
4704;SDS011;2366;51.332;6.610;2023-03-07T09:21:34;3.50;;;3.23;;
4704;SDS011;2366;51.332;6.610;2023-03-07T09:24:00;3.03;;;2.83;;
4704;SDS011;2366;51.332;6.610;2023-03-07T09:26:25;3.07;;;2.87;;
4704;SDS011;2366;51.332;6.610;2023-03-07T09:28:51;3.40;;;3.10;;
4704;SDS011;2366;51.332;6.610;2023-03-07T09:31:16;3.87;;;3.30;;
4704;SDS011;2366;51.332;6.610;2023-03-07T09:33:42;3.53;;;3.33;;
4704;SDS011;2366;51.332;6.610;2023-03-07T09:36:08;3.47;;;3.10;;
4704;SDS011;2366;51.332;6.610;2023-03-07T09:38:35;3.03;;;2.83;;
4704;SDS011;2366;51.332;6.610;2023-03-07T09:44:30;2.80;;;2.40;;
4704;SDS011;2366;51.332;6.610;2023-03-07T09:49:50;2.78;;;2.58;;
4704;SDS011;2366;51.332;6.610;2023-03-07T09:52:27;2.35;;;2.10;;
4704;SDS011;2366;51.332;6.610;2023-03-07T09:57:30;1.85;;;1.75;;
4704;SDS011;2366;51.332;6.610;2023-03-07T10:00:06;1.80;;;1.70;;
4704;SDS011;2366;51.332;6.610;2023-03-07T10:02:49;1.75;;;1.65;;
4704;SDS011;2366;51.332;6.610;2023-03-07T10:07:54;1.95;;;1.85;;
4704;SDS011;2366;51.332;6.610;2023-03-07T10:10:25;2.10;;;2.00;;
4704;SDS011;2366;51.332;6.610;2023-03-07T10:15:32;2.00;;;1.90;;
4704;SDS011;2366;51.332;6.610;2023-03-07T10:21:38;2.90;;;1.90;;
4704;SDS011;2366;51.332;6.610;2023-03-07T10:27:01;1.83;;;1.73;;
4704;SDS011;2366;51.332;6.610;2023-03-07T10:29:41;1.95;;;1.85;;
4704;SDS011;2366;51.332;6.610;2023-03-07T10:37:56;2.30;;;2.10;;
4704;SDS011;2366;51.332;6.610;2023-03-07T10:40:54;3.38;;;2.75;;
4704;SDS011;2366;51.332;6.610;2023-03-07T10:43:25;2.28;;;2.08;;
4704;SDS011;2366;51.332;6.610;2023-03-07T10:46:07;2.30;;;2.20;;
4704;SDS011;2366;51.332;6.610;2023-03-07T10:54:16;3.00;;;2.80;;
4704;SDS011;2366;51.332;6.610;2023-03-07T10:59:33;2.60;;;2.40;;
4704;SDS011;2366;51.332;6.610;2023-03-07T11:02:00;2.90;;;2.40;;
4704;SDS011;2366;51.332;6.610;2023-03-07T11:04:27;2.60;;;2.40;;
4704;SDS011;2366;51.332;6.610;2023-03-07T11:07:00;2.80;;;2.50;;
4704;SDS011;2366;51.332;6.610;2023-03-07T11:09:33;2.00;;;1.90;;
4704;SDS011;2366;51.332;6.610;2023-03-07T11:14:44;5.95;;;4.63;;
4704;SDS011;2366;51.332;6.610;2023-03-07T11:17:25;4.45;;;3.25;;
4704;SDS011;2366;51.332;6.610;2023-03-07T11:20:10;3.00;;;2.72;;
4704;SDS011;2366;51.332;6.610;2023-03-07T11:22:48;3.08;;;2.78;;
4704;SDS011;2366;51.332;6.610;2023-03-07T11:25:16;3.17;;;1.63;;
4704;SDS011;2366;51.332;6.610;2023-03-07T11:30:15;4.50;;;2.78;;
4704;SDS011;2366;51.332;6.610;2023-03-07T11:38:17;4.18;;;2.80;;
4704;SDS011;2366;51.332;6.610;2023-03-07T11:41:31;5.38;;;4.97;;
4704;SDS011;2366;51.332;6.610;2023-03-07T11:49:25;2.80;;;2.60;;
4704;SDS011;2366;51.332;6.610;2023-03-07T11:54:55;4.30;;;3.60;;
4704;SDS011;2366;51.332;6.610;2023-03-07T12:05:34;3.45;;;2.55;;
4704;SDS011;2366;51.332;6.610;2023-03-07T12:08:33;3.70;;;3.40;;
4704;SDS011;2366;51.332;6.610;2023-03-07T12:11:15;5.82;;;3.33;;
4704;SDS011;2366;51.332;6.610;2023-03-07T12:13:48;4.32;;;3.90;;
4704;SDS011;2366;51.332;6.610;2023-03-07T12:19:11;4.80;;;4.40;;
4704;SDS011;2366;51.332;6.610;2023-03-07T12:24:34;4.50;;;4.10;;
4704;SDS011;2366;51.332;6.610;2023-03-07T12:27:08;7.47;;;6.68;;
4704;SDS011;2366;51.332;6.610;2023-03-07T12:29:38;5.15;;;4.72;;
4704;SDS011;2366;51.332;6.610;2023-03-07T12:32:18;3.85;;;3.53;;
4704;SDS011;2366;51.332;6.610;2023-03-07T12:35:07;4.25;;;3.40;;
4704;SDS011;2366;51.332;6.610;2023-03-07T12:37:51;3.60;;;3.30;;
4704;SDS011;2366;51.332;6.610;2023-03-07T12:40:36;3.13;;;2.90;;
4704;SDS011;2366;51.332;6.610;2023-03-07T12:48:19;2.65;;;2.45;;
4704;SDS011;2366;51.332;6.610;2023-03-07T12:50:58;2.30;;;2.20;;
4704;SDS011;2366;51.332;6.610;2023-03-07T12:53:29;2.83;;;2.58;;
4704;SDS011;2366;51.332;6.610;2023-03-07T12:56:17;2.58;;;2.38;;
4704;SDS011;2366;51.332;6.610;2023-03-07T12:58:55;2.78;;;2.58;;
4704;SDS011;2366;51.332;6.610;2023-03-07T13:01:31;2.70;;;2.50;;
4704;SDS011;2366;51.332;6.610;2023-03-07T13:06:46;2.20;;;2.03;;
4704;SDS011;2366;51.332;6.610;2023-03-07T13:09:20;3.15;;;2.95;;
4704;SDS011;2366;51.332;6.610;2023-03-07T13:20:32;4.70;;;4.40;;
4704;SDS011;2366;51.332;6.610;2023-03-07T13:27:54;3.75;;;2.50;;
4704;SDS011;2366;51.332;6.610;2023-03-07T13:30:24;1.95;;;1.75;;
4704;SDS011;2366;51.332;6.610;2023-03-07T13:33:03;2.65;;;1.75;;
4704;SDS011;2366;51.332;6.610;2023-03-07T13:35:56;2.45;;;2.20;;
4704;SDS011;2366;51.332;6.610;2023-03-07T13:40:58;2.90;;;2.70;;
4704;SDS011;2366;51.332;6.610;2023-03-07T13:58:48;2.20;;;1.90;;
4704;SDS011;2366;51.332;6.610;2023-03-07T14:04:01;1.98;;;1.80;;
4704;SDS011;2366;51.332;6.610;2023-03-07T14:06:36;2.85;;;2.25;;
4704;SDS011;2366;51.332;6.610;2023-03-07T14:09:04;3.53;;;2.35;;
4704;SDS011;2366;51.332;6.610;2023-03-07T14:11:40;2.70;;;2.38;;
4704;SDS011;2366;51.332;6.610;2023-03-07T14:17:19;3.33;;;3.10;;
4704;SDS011;2366;51.332;6.610;2023-03-07T14:20:11;6.43;;;3.33;;
4704;SDS011;2366;51.332;6.610;2023-03-07T14:23:01;7.18;;;3.60;;
4704;SDS011;2366;51.332;6.610;2023-03-07T14:25:35;6.60;;;4.95;;
4704;SDS011;2366;51.332;6.610;2023-03-07T14:28:16;3.10;;;2.80;;
4704;SDS011;2366;51.332;6.610;2023-03-07T14:30:53;5.40;;;4.70;;
4704;SDS011;2366;51.332;6.610;2023-03-07T14:33:20;4.70;;;4.00;;
4704;SDS011;2366;51.332;6.610;2023-03-07T14:35:46;6.43;;;4.45;;
4704;SDS011;2366;51.332;6.610;2023-03-07T14:38:24;8.97;;;5.63;;
4704;SDS011;2366;51.332;6.610;2023-03-07T14:46:04;4.85;;;3.33;;
4704;SDS011;2366;51.332;6.610;2023-03-07T14:52:12;7.40;;;4.78;;
4704;SDS011;2366;51.332;6.610;2023-03-07T14:54:42;6.85;;;4.53;;
4704;SDS011;2366;51.332;6.610;2023-03-07T14:57:12;12.55;;;7.78;;
4704;SDS011;2366;51.332;6.610;2023-03-07T15:00:04;6.78;;;4.93;;
4704;SDS011;2366;51.332;6.610;2023-03-07T15:02:32;6.28;;;4.97;;
4704;SDS011;2366;51.332;6.610;2023-03-07T15:04:57;6.73;;;5.03;;
4704;SDS011;2366;51.332;6.610;2023-03-07T15:07:23;10.10;;;6.60;;
4704;SDS011;2366;51.332;6.610;2023-03-07T15:09:48;6.00;;;4.87;;
4704;SDS011;2366;51.332;6.610;2023-03-07T15:12:17;3.30;;;2.13;;
4704;SDS011;2366;51.332;6.610;2023-03-07T15:14:50;4.38;;;2.80;;
4704;SDS011;2366;51.332;6.610;2023-03-07T15:17:22;13.05;;;7.40;;
4704;SDS011;2366;51.332;6.610;2023-03-07T15:19:59;7.93;;;5.25;;
4704;SDS011;2366;51.332;6.610;2023-03-07T15:22:34;5.30;;;3.95;;
4704;SDS011;2366;51.332;6.610;2023-03-07T15:25:03;7.82;;;4.78;;
4704;SDS011;2366;51.332;6.610;2023-03-07T15:27:30;20.65;;;8.00;;
4704;SDS011;2366;51.332;6.610;2023-03-07T15:29:57;6.28;;;4.57;;
4704;SDS011;2366;51.332;6.610;2023-03-07T15:32:37;5.40;;;4.63;;
4704;SDS011;2366;51.332;6.610;2023-03-07T15:37:30;5.60;;;4.53;;
4704;SDS011;2366;51.332;6.610;2023-03-07T15:42:31;4.57;;;4.13;;
4704;SDS011;2366;51.332;6.610;2023-03-07T15:44:59;3.78;;;3.47;;
4704;SDS011;2366;51.332;6.610;2023-03-07T15:47:26;4.85;;;4.45;;
4704;SDS011;2366;51.332;6.610;2023-03-07T15:50:03;4.43;;;4.05;;
4704;SDS011;2366;51.332;6.610;2023-03-07T15:52:32;4.65;;;4.03;;
4704;SDS011;2366;51.332;6.610;2023-03-07T15:55:00;4.93;;;4.43;;
4704;SDS011;2366;51.332;6.610;2023-03-07T15:57:30;6.40;;;4.85;;
4704;SDS011;2366;51.332;6.610;2023-03-07T16:04:59;4.30;;;4.00;;
4704;SDS011;2366;51.332;6.610;2023-03-07T16:07:51;5.97;;;5.10;;
4704;SDS011;2366;51.332;6.610;2023-03-07T16:10:18;7.60;;;5.13;;
4704;SDS011;2366;51.332;6.610;2023-03-07T16:12:44;6.78;;;5.15;;
4704;SDS011;2366;51.332;6.610;2023-03-07T16:15:12;5.90;;;5.35;;
4704;SDS011;2366;51.332;6.610;2023-03-07T16:17:41;5.80;;;5.30;;
4704;SDS011;2366;51.332;6.610;2023-03-07T16:20:14;6.70;;;5.77;;
4704;SDS011;2366;51.332;6.610;2023-03-07T16:22:40;6.20;;;5.60;;
4704;SDS011;2366;51.332;6.610;2023-03-07T16:25:06;7.83;;;7.10;;
4704;SDS011;2366;51.332;6.610;2023-03-07T16:27:32;7.85;;;6.47;;
4704;SDS011;2366;51.332;6.610;2023-03-07T16:29:58;8.70;;;7.63;;
4704;SDS011;2366;51.332;6.610;2023-03-07T16:32:24;14.40;;;7.93;;
4704;SDS011;2366;51.332;6.610;2023-03-07T16:34:49;9.83;;;8.23;;
4704;SDS011;2366;51.332;6.610;2023-03-07T16:37:15;9.57;;;8.57;;
4704;SDS011;2366;51.332;6.610;2023-03-07T16:39:40;10.17;;;8.30;;
4704;SDS011;2366;51.332;6.610;2023-03-07T16:42:06;14.70;;;9.77;;
4704;SDS011;2366;51.332;6.610;2023-03-07T16:44:38;11.57;;;8.95;;
4704;SDS011;2366;51.332;6.610;2023-03-07T16:47:05;9.77;;;8.77;;
4704;SDS011;2366;51.332;6.610;2023-03-07T16:49:33;9.10;;;7.60;;
4704;SDS011;2366;51.332;6.610;2023-03-07T16:51:59;8.65;;;7.53;;
4704;SDS011;2366;51.332;6.610;2023-03-07T16:54:24;9.70;;;8.60;;
4704;SDS011;2366;51.332;6.610;2023-03-07T16:56:50;8.63;;;7.43;;
4704;SDS011;2366;51.332;6.610;2023-03-07T16:59:18;8.68;;;7.35;;
4704;SDS011;2366;51.332;6.610;2023-03-07T17:01:46;12.05;;;10.50;;
4704;SDS011;2366;51.332;6.610;2023-03-07T17:04:13;12.80;;;10.52;;
4704;SDS011;2366;51.332;6.610;2023-03-07T17:06:39;10.60;;;9.13;;
4704;SDS011;2366;51.332;6.610;2023-03-07T17:09:06;10.43;;;8.82;;
4704;SDS011;2366;51.332;6.610;2023-03-07T17:11:33;6.80;;;4.75;;
4704;SDS011;2366;51.332;6.610;2023-03-07T17:14:04;6.72;;;4.70;;
4704;SDS011;2366;51.332;6.610;2023-03-07T17:16:34;7.82;;;5.70;;
4704;SDS011;2366;51.332;6.610;2023-03-07T17:19:03;7.00;;;5.55;;
4704;SDS011;2366;51.332;6.610;2023-03-07T17:21:28;7.63;;;5.43;;
4704;SDS011;2366;51.332;6.610;2023-03-07T17:23:53;6.30;;;5.70;;
4704;SDS011;2366;51.332;6.610;2023-03-07T17:28:53;9.15;;;8.15;;
4704;SDS011;2366;51.332;6.610;2023-03-07T17:31:21;12.40;;;10.07;;